createdAt,value
2023-01-13T00:01:37.663Z,94.63
2023-01-13T00:04:08.402Z,94.79
2023-01-13T00:06:39.035Z,95.14
2023-01-13T00:09:09.545Z,94.84
2023-01-13T00:11:40.092Z,94.72
2023-01-13T00:14:12.198Z,93.92
2023-01-13T00:16:42.749Z,94.11
2023-01-13T00:19:13.399Z,93.88
2023-01-13T00:21:44.881Z,93.75
2023-01-13T00:24:15.511Z,93.49
2023-01-13T00:26:46.116Z,93.43
2023-01-13T00:29:21.211Z,93.30
2023-01-13T00:31:53.125Z,93.05
2023-01-13T00:34:24.680Z,92.36
2023-01-13T00:36:55.574Z,92.02
2023-01-13T00:39:26.227Z,91.79
2023-01-13T00:42:13.450Z,91.19
2023-01-13T00:44:45.701Z,91.26
2023-01-13T00:47:16.512Z,90.83
2023-01-13T00:49:47.679Z,90.84
2023-01-13T00:52:18.567Z,90.53
2023-01-13T00:54:49.865Z,90.29
2023-01-13T00:57:21.336Z,89.34
2023-01-13T00:59:53.736Z,88.70
2023-01-13T01:02:24.798Z,88.56
2023-01-13T01:04:55.517Z,88.89
2023-01-13T01:07:26.174Z,88.41
2023-01-13T01:09:57.033Z,88.13
2023-01-13T01:12:27.697Z,87.34
2023-01-13T01:15:00.012Z,87.44
2023-01-13T01:17:31.424Z,86.94
2023-01-13T01:20:01.845Z,85.93
2023-01-13T01:22:32.476Z,86.07
2023-01-13T01:25:02.935Z,86.18
2023-01-13T01:27:33.377Z,86.41
2023-01-13T01:30:05.577Z,86.67
2023-01-13T01:32:37.524Z,86.74
2023-01-13T01:35:08.845Z,86.81
2023-01-13T01:37:39.337Z,86.95
2023-01-13T01:40:10.877Z,87.50
2023-01-13T01:42:58.337Z,87.69
2023-01-13T01:45:33.418Z,87.51
2023-01-13T01:48:07.388Z,87.46
2023-01-13T01:50:39.083Z,87.26
2023-01-13T01:53:15.493Z,87.78
2023-01-13T01:55:46.322Z,87.62
2023-01-13T01:58:21.804Z,88.11
2023-01-13T02:00:54.401Z,87.82
2023-01-13T02:03:25.429Z,87.42
2023-01-13T02:05:56.243Z,86.96
2023-01-13T02:08:26.907Z,86.38
2023-01-13T02:10:57.683Z,86.43
2023-01-13T02:13:27.080Z,85.95
2023-01-13T02:16:06.263Z,85.84
2023-01-13T02:18:53.422Z,85.85
2023-01-13T02:21:43.983Z,85.79
2023-01-13T02:24:56.505Z,85.75
2023-01-13T02:27:46.230Z,85.64
2023-01-13T02:30:43.537Z,86.19
2023-01-13T02:33:31.578Z,86.95
2023-01-13T02:36:08.559Z,87.09
2023-01-13T02:38:46.695Z,87.07
2023-01-13T02:41:54.910Z,87.48
2023-01-13T02:44:31.259Z,87.90
2023-01-13T02:47:09.273Z,88.51
2023-01-13T02:49:43.598Z,88.81
2023-01-13T02:52:16.979Z,88.65
2023-01-13T02:54:51.915Z,89.03
2023-01-13T02:57:25.034Z,89.53
2023-01-13T02:59:58.468Z,89.31
2023-01-13T03:02:31.669Z,90.02
2023-01-13T03:05:03.123Z,90.46
2023-01-13T03:07:57.933Z,90.59
2023-01-13T03:10:48.344Z,90.97
2023-01-13T03:13:31.836Z,90.86
2023-01-13T03:16:13.999Z,90.67
2023-01-13T03:18:53.713Z,90.46
2023-01-13T03:21:28.886Z,90.28
2023-01-13T03:24:06.328Z,90.42
2023-01-13T03:26:44.000Z,90.05
2023-01-13T03:29:21.531Z,90.14
2023-01-13T03:32:00.950Z,90.29
2023-01-13T03:34:38.023Z,90.35
2023-01-13T03:37:11.095Z,90.25
2023-01-13T03:39:47.338Z,90.07
2023-01-13T03:42:22.423Z,89.94
2023-01-13T03:44:57.274Z,89.57
2023-01-13T03:47:34.174Z,89.48
2023-01-13T03:50:09.312Z,89.18
2023-01-13T03:52:44.068Z,89.38
2023-01-13T03:55:19.379Z,88.73
2023-01-13T03:57:55.497Z,88.68
2023-01-13T04:00:29.262Z,88.80
2023-01-13T04:03:07.763Z,89.00
2023-01-13T04:05:44.824Z,88.80
2023-01-13T04:08:22.287Z,88.73
2023-01-13T04:10:56.291Z,88.48
2023-01-13T04:13:31.315Z,88.37
2023-01-13T04:16:08.488Z,88.33
2023-01-13T04:18:41.763Z,88.45
2023-01-13T04:21:14.136Z,88.10
2023-01-13T04:23:45.396Z,87.82
2023-01-13T04:26:16.023Z,87.40
2023-01-13T04:28:46.518Z,86.93
2023-01-13T04:31:17.379Z,86.13
2023-01-13T04:33:48.043Z,86.17
2023-01-13T04:36:20.537Z,86.12
2023-01-13T04:38:51.117Z,85.69
2023-01-13T04:41:21.805Z,85.63
2023-01-13T04:43:52.532Z,85.28
2023-01-13T04:46:23.265Z,85.30
2023-01-13T04:48:53.898Z,85.10
2023-01-13T04:51:26.091Z,85.19
2023-01-13T04:53:56.599Z,85.10
2023-01-13T04:56:27.218Z,85.21
2023-01-13T04:58:57.656Z,84.86
2023-01-13T05:01:28.326Z,85.09
2023-01-13T05:03:58.979Z,84.67
2023-01-13T05:06:31.179Z,84.59
2023-01-13T05:09:01.728Z,84.57
2023-01-13T05:11:49.269Z,85.01
2023-01-13T05:14:36.560Z,84.99
2023-01-13T05:17:07.125Z,84.91
2023-01-13T05:19:39.967Z,84.86
2023-01-13T05:22:28.997Z,84.83
2023-01-13T05:25:16.384Z,85.32
2023-01-13T05:27:47.086Z,85.40
2023-01-13T05:30:18.290Z,85.37
2023-01-13T05:32:49.043Z,85.30
2023-01-13T05:35:19.950Z,85.76
2023-01-13T05:37:52.318Z,85.97
2023-01-13T05:40:39.653Z,86.38
2023-01-13T05:43:23.757Z,86.48
2023-01-13T05:45:58.665Z,86.70
2023-01-13T05:48:31.552Z,86.49
2023-01-13T05:51:03.032Z,86.68
2023-01-13T05:53:35.692Z,86.32
2023-01-13T05:56:07.795Z,86.56
2023-01-13T05:58:38.708Z,86.69
2023-01-13T06:01:10.991Z,86.88
2023-01-13T06:03:41.687Z,87.00
2023-01-13T06:06:12.202Z,86.93
2023-01-13T06:08:44.726Z,86.81
2023-01-13T06:11:15.235Z,86.90
2023-01-13T06:13:45.751Z,87.34
2023-01-13T06:16:16.410Z,87.39
2023-01-13T06:18:46.896Z,87.62
2023-01-13T06:21:17.383Z,88.38
2023-01-13T06:23:49.650Z,88.94
2023-01-13T06:26:23.215Z,89.22
2023-01-13T06:28:54.023Z,89.11
2023-01-13T06:31:24.925Z,89.54
2023-01-13T06:33:59.788Z,90.07
2023-01-13T06:36:34.033Z,90.21
2023-01-13T06:39:07.589Z,90.64
2023-01-13T06:41:54.827Z,91.11
2023-01-13T06:44:27.178Z,91.48
2023-01-13T06:46:57.801Z,91.56
2023-01-13T06:49:28.419Z,92.21
2023-01-13T06:51:59.116Z,92.61
2023-01-13T06:54:31.623Z,92.46
2023-01-13T06:57:02.252Z,92.99
2023-01-13T06:59:35.121Z,92.94
2023-01-13T07:02:06.166Z,93.07
2023-01-13T07:04:36.877Z,93.45
2023-01-13T07:07:08.611Z,93.61
2023-01-13T07:09:40.712Z,93.92
2023-01-13T07:12:11.378Z,94.10
2023-01-13T07:14:58.885Z,94.24
2023-01-13T07:17:29.307Z,94.09
2023-01-13T07:20:02.606Z,94.06
2023-01-13T07:22:33.104Z,93.81
2023-01-13T07:25:05.191Z,93.98
2023-01-13T07:27:35.699Z,93.60
2023-01-13T07:30:06.955Z,93.68
2023-01-13T07:32:37.522Z,93.52
2023-01-13T07:35:09.001Z,93.29
2023-01-13T07:37:40.641Z,92.87
2023-01-13T07:40:14.204Z,92.69
2023-01-13T07:43:01.722Z,92.87
2023-01-13T07:45:32.269Z,92.70
2023-01-13T07:48:02.761Z,92.48
2023-01-13T07:50:33.253Z,92.44
2023-01-13T07:53:03.815Z,92.18
2023-01-13T07:55:35.877Z,91.49
2023-01-13T07:58:07.273Z,91.17
2023-01-13T08:00:38.737Z,91.21
2023-01-13T08:03:12.325Z,90.56
2023-01-13T08:05:43.034Z,90.16
2023-01-13T08:08:15.833Z,89.92
2023-01-13T08:10:48.810Z,89.60
2023-01-13T08:13:28.173Z,89.62
2023-01-13T08:16:04.449Z,89.39
2023-01-13T08:19:00.245Z,89.81
2023-01-13T08:38:08.890Z,89.75
2023-01-13T09:34:25.340Z,92.57
2023-01-13T09:36:56.764Z,92.94
2023-01-13T09:39:27.304Z,93.77
2023-01-13T09:42:17.425Z,94.19
2023-01-13T09:44:51.379Z,94.88
2023-01-13T09:47:34.788Z,95.18
2023-01-13T09:50:20.809Z,95.81
2023-01-13T09:52:54.345Z,96.44
2023-01-13T09:55:31.481Z,96.31
2023-01-13T09:58:08.671Z,96.62
2023-01-13T10:00:48.027Z,96.91
2023-01-13T10:03:25.289Z,97.45
2023-01-13T10:06:05.670Z,97.32
2023-01-13T10:08:41.355Z,97.07
2023-01-13T10:11:34.631Z,97.52
2023-01-13T10:14:17.598Z,97.06
2023-01-13T10:17:00.131Z,96.77
2023-01-13T10:19:39.920Z,97.11
2023-01-13T10:22:30.940Z,96.71
2023-01-13T10:25:35.218Z,96.68
2023-01-13T10:28:13.249Z,96.77
2023-01-13T10:30:47.108Z,96.74
2023-01-13T10:34:07.107Z,97.15
2023-01-13T10:40:22.991Z,97.18
2023-01-13T10:47:28.016Z,97.02
2023-01-13T10:50:21.267Z,96.76
2023-01-13T10:53:04.379Z,96.27
2023-01-13T10:56:04.866Z,96.20
2023-01-13T10:58:36.407Z,96.59
2023-01-13T11:01:10.666Z,96.91
2023-01-13T11:03:45.474Z,97.29
2023-01-13T11:06:25.374Z,97.21
2023-01-13T11:08:59.411Z,97.21
2023-01-13T11:11:48.455Z,97.34
2023-01-13T11:14:38.038Z,97.30
2023-01-13T11:17:32.172Z,96.60
2023-01-13T11:20:17.758Z,96.30
2023-01-13T11:22:52.559Z,96.29
2023-01-13T11:25:33.413Z,96.04
2023-01-13T11:28:17.915Z,95.55
2023-01-13T11:30:54.427Z,95.05
2023-01-13T11:33:42.034Z,95.33
2023-01-13T11:36:20.407Z,95.26
2023-01-13T11:38:54.567Z,95.40
2023-01-13T11:41:35.710Z,94.41
2023-01-13T11:44:21.236Z,95.21
2023-01-13T11:46:54.812Z,95.51
2023-01-13T11:49:30.102Z,95.42
2023-01-13T11:52:08.112Z,95.29
2023-01-13T11:55:12.408Z,94.90
2023-01-13T11:58:07.392Z,93.22
2023-01-13T12:00:58.742Z,92.75
2023-01-13T12:03:42.414Z,92.18
2023-01-13T12:06:26.351Z,91.91
2023-01-13T12:09:28.498Z,91.75
2023-01-13T12:12:24.082Z,91.65
2023-01-13T12:15:11.658Z,91.15
2023-01-13T12:17:59.994Z,89.50
2023-01-13T12:20:41.803Z,88.14
2023-01-13T12:23:25.227Z,87.48
2023-01-13T12:26:02.266Z,85.39
2023-01-13T12:28:47.589Z,84.74
2023-01-13T12:31:21.862Z,84.92
2023-01-13T12:38:29.180Z,82.68
2023-01-13T12:41:09.472Z,82.87
2023-01-13T12:44:08.107Z,83.61
2023-01-13T12:47:01.921Z,84.17
2023-01-13T12:49:49.460Z,82.71
2023-01-13T12:52:20.988Z,83.36
2023-01-13T12:55:20.007Z,84.99
2023-01-13T12:58:18.815Z,85.58
2023-01-13T13:01:03.057Z,81.63
2023-01-13T13:03:38.399Z,81.13
2023-01-13T13:06:20.581Z,79.96
2023-01-13T13:09:05.754Z,80.44
2023-01-13T13:15:22.225Z,79.27
2023-01-13T13:22:20.290Z,72.48
2023-01-13T13:25:32.391Z,70.87
2023-01-13T13:32:15.568Z,70.85
2023-01-13T13:35:15.925Z,70.91
2023-01-13T13:38:32.323Z,70.73
2023-01-13T13:44:55.555Z,70.78
2023-01-13T13:50:40.407Z,69.50
2023-01-13T13:56:56.614Z,68.50
2023-01-13T14:08:07.321Z,67.20
2023-01-13T14:10:43.407Z,67.13
2023-01-13T14:13:45.462Z,66.89
2023-01-13T14:20:51.094Z,66.69
2023-01-13T14:24:59.345Z,67.71
2023-01-13T14:28:02.266Z,67.09
2023-01-13T14:49:38.415Z,76.16
2023-01-13T14:53:32.182Z,77.87
2023-01-13T15:15:07.818Z,75.93
2023-01-13T15:18:58.615Z,75.21
2023-01-13T15:21:40.513Z,74.81
2023-01-13T15:25:20.362Z,74.91
2023-01-13T15:28:36.220Z,74.50
2023-01-13T15:31:21.877Z,74.59
2023-01-13T15:34:36.395Z,74.29
2023-01-13T15:45:13.706Z,74.25
2023-01-13T15:52:12.343Z,74.27
2023-01-13T15:59:02.145Z,74.42
2023-01-13T16:32:20.931Z,74.47
2023-01-13T16:41:44.679Z,74.26
2023-01-13T16:54:52.152Z,74.46
2023-01-13T17:08:40.332Z,74.37
2023-01-13T17:14:36.190Z,74.37
2023-01-13T17:27:25.374Z,74.34
2023-01-13T17:38:33.307Z,73.82
2023-01-13T17:41:31.136Z,74.15
2023-01-13T17:54:47.823Z,73.39
2023-01-13T17:58:16.560Z,73.42
2023-01-13T18:13:10.533Z,73.12
2023-01-13T18:54:31.776Z,71.50
2023-01-13T19:00:44.819Z,70.64
2023-01-13T19:03:15.546Z,70.66
2023-01-13T19:05:48.245Z,70.08
2023-01-13T19:08:19.164Z,70.46
2023-01-13T19:10:50.779Z,70.50
2023-01-13T19:13:21.419Z,70.97
2023-01-13T19:15:53.736Z,69.85
2023-01-13T19:18:27.833Z,69.54
2023-01-13T19:21:05.246Z,69.21
2023-01-13T19:23:36.636Z,67.97
2023-01-13T19:26:09.107Z,67.63
2023-01-13T19:28:41.821Z,67.10
2023-01-13T19:31:21.454Z,65.97
2023-01-13T19:33:52.310Z,65.05
2023-01-13T19:36:23.330Z,64.52
2023-01-13T19:38:54.068Z,63.93
2023-01-13T19:41:41.185Z,64.20
2023-01-13T19:44:30.866Z,63.94
2023-01-13T19:47:04.535Z,64.43
2023-01-13T19:49:35.197Z,63.92
2023-01-13T19:52:08.890Z,63.80
2023-01-13T19:54:39.955Z,63.90
2023-01-13T19:57:11.885Z,63.22
2023-01-13T19:59:43.130Z,63.77
2023-01-13T20:02:18.302Z,63.55
2023-01-13T20:04:49.736Z,62.80
2023-01-13T20:07:20.942Z,63.47
2023-01-13T20:09:51.638Z,63.29
2023-01-13T20:12:22.688Z,63.67
2023-01-13T20:14:53.546Z,63.40
2023-01-13T20:17:27.881Z,63.21
2023-01-13T20:19:59.767Z,61.44
2023-01-13T20:22:30.564Z,60.72
2023-01-13T20:25:01.290Z,60.04
2023-01-13T20:27:31.853Z,59.06
2023-01-13T20:30:04.377Z,58.87
2023-01-13T20:32:36.717Z,59.16
2023-01-13T20:35:08.652Z,60.22
2023-01-13T20:37:41.088Z,59.82
2023-01-13T20:40:16.160Z,60.38
2023-01-13T20:42:48.480Z,60.23
2023-01-13T20:45:22.448Z,60.56
2023-01-13T20:47:54.641Z,59.46
2023-01-13T20:50:25.310Z,60.20
2023-01-13T20:52:55.888Z,59.84
2023-01-13T20:55:27.169Z,59.54
2023-01-13T20:57:58.897Z,59.16
2023-01-13T21:03:16.124Z,58.92
2023-01-13T21:05:46.664Z,57.92
2023-01-13T21:08:17.263Z,58.43
2023-01-13T21:10:47.938Z,58.82
2023-01-13T21:13:35.202Z,58.21
2023-01-13T21:16:06.002Z,58.44
2023-01-13T21:18:55.537Z,58.79
2023-01-13T21:21:26.654Z,58.19
2023-01-13T21:23:57.650Z,58.98
2023-01-13T21:26:28.587Z,58.84
2023-01-13T21:29:00.759Z,59.24
2023-01-13T21:31:31.291Z,58.98
2023-01-13T21:34:03.346Z,59.14
2023-01-13T21:36:33.785Z,59.04
2023-01-13T21:39:04.331Z,59.52
2023-01-13T21:41:51.590Z,60.02
2023-01-13T21:44:39.901Z,60.02
2023-01-13T21:47:34.626Z,60.08
2023-01-13T21:50:09.780Z,60.71
2023-01-13T21:52:40.444Z,60.72
2023-01-13T21:55:25.673Z,61.02
2023-01-13T21:57:57.676Z,61.43
2023-01-13T22:00:30.678Z,61.61
2023-01-13T22:03:01.092Z,61.72
2023-01-13T22:05:36.287Z,62.57
2023-01-13T22:08:07.282Z,61.89
2023-01-13T22:10:58.225Z,61.63
2023-01-13T22:13:47.632Z,61.06
2023-01-13T22:16:18.616Z,60.91
2023-01-13T22:18:49.085Z,60.75
2023-01-13T22:21:21.407Z,60.20
2023-01-13T22:23:51.879Z,60.62
2023-01-13T22:26:22.413Z,58.89
2023-01-13T22:28:52.865Z,58.94
2023-01-13T22:31:25.633Z,57.96
2023-01-13T22:33:57.135Z,57.47
2023-01-13T22:36:29.272Z,57.35
2023-01-13T22:39:01.305Z,56.93
2023-01-13T22:41:31.756Z,56.98
2023-01-13T22:44:02.241Z,57.43
2023-01-13T22:46:32.666Z,57.38
2023-01-13T22:49:03.195Z,57.66
2023-01-13T22:51:35.485Z,56.75
2023-01-13T22:54:05.970Z,56.11
2023-01-13T22:56:36.985Z,56.00
2023-01-13T22:59:10.375Z,55.89
2023-01-13T23:01:40.924Z,56.91
2023-01-13T23:04:13.671Z,57.23
2023-01-13T23:06:45.802Z,56.91
2023-01-13T23:09:16.298Z,56.91
2023-01-13T23:11:47.836Z,56.57
2023-01-13T23:14:18.532Z,56.71
2023-01-13T23:16:49.314Z,56.96
2023-01-13T23:19:19.847Z,57.23
2023-01-13T23:21:51.904Z,57.37
2023-01-13T23:24:26.605Z,57.49
2023-01-13T23:26:57.033Z,57.78
2023-01-13T23:29:27.561Z,58.24
2023-01-13T23:31:58.030Z,57.85
2023-01-13T23:34:28.648Z,58.20
2023-01-13T23:37:01.001Z,58.34
2023-01-13T23:39:31.651Z,58.63
2023-01-13T23:42:02.245Z,58.57
2023-01-13T23:44:32.864Z,58.91
2023-01-13T23:47:18.061Z,59.42
2023-01-13T23:49:48.986Z,59.48
2023-01-13T23:52:22.184Z,59.34
2023-01-13T23:54:53.996Z,59.34
2023-01-13T23:57:26.795Z,59.39
2023-01-13T23:59:58.957Z,59.98
